sensor_id;sensor_type;location;lat;lon;timestamp;temperature;humidity
46552;DHT22;32278;51.810;4.712;2023-02-22T00:00:18;7.50;99.90
46552;DHT22;32278;51.810;4.712;2023-02-22T00:02:50;7.50;99.90
46552;DHT22;32278;51.810;4.712;2023-02-22T00:05:18;7.40;99.90
46552;DHT22;32278;51.810;4.712;2023-02-22T00:07:49;7.50;99.90
46552;DHT22;32278;51.810;4.712;2023-02-22T00:10:15;7.50;99.90
46552;DHT22;32278;51.810;4.712;2023-02-22T00:12:46;7.60;99.90
46552;DHT22;32278;51.810;4.712;2023-02-22T00:15:14;7.60;99.90
46552;DHT22;32278;51.810;4.712;2023-02-22T00:17:41;7.60;99.90
46552;DHT22;32278;51.810;4.712;2023-02-22T00:20:07;7.60;99.90
46552;DHT22;32278;51.810;4.712;2023-02-22T00:22:34;7.40;99.90
46552;DHT22;32278;51.810;4.712;2023-02-22T00:25:00;7.40;99.90
46552;DHT22;32278;51.810;4.712;2023-02-22T00:27:26;7.40;99.90
46552;DHT22;32278;51.810;4.712;2023-02-22T00:29:51;7.30;99.90
46552;DHT22;32278;51.810;4.712;2023-02-22T00:32:17;7.30;99.90
46552;DHT22;32278;51.810;4.712;2023-02-22T00:34:43;7.30;99.90
46552;DHT22;32278;51.810;4.712;2023-02-22T00:37:11;7.40;99.90
46552;DHT22;32278;51.810;4.712;2023-02-22T00:39:36;7.50;99.90
46552;DHT22;32278;51.810;4.712;2023-02-22T00:42:02;7.30;99.90
46552;DHT22;32278;51.810;4.712;2023-02-22T00:44:28;7.20;99.90
46552;DHT22;32278;51.810;4.712;2023-02-22T00:46:53;7.10;99.90
46552;DHT22;32278;51.810;4.712;2023-02-22T00:49:19;7.00;99.90
46552;DHT22;32278;51.810;4.712;2023-02-22T00:51:45;6.90;99.90
46552;DHT22;32278;51.810;4.712;2023-02-22T00:54:10;6.90;99.90
46552;DHT22;32278;51.810;4.712;2023-02-22T00:56:36;7.00;99.90
46552;DHT22;32278;51.810;4.712;2023-02-22T00:59:02;7.10;99.90
46552;DHT22;32278;51.810;4.712;2023-02-22T01:01:29;7.10;99.90
46552;DHT22;32278;51.810;4.712;2023-02-22T01:03:55;7.10;99.90
46552;DHT22;32278;51.810;4.712;2023-02-22T01:06:20;7.10;99.90
46552;DHT22;32278;51.810;4.712;2023-02-22T01:08:47;7.20;99.90
46552;DHT22;32278;51.810;4.712;2023-02-22T01:11:15;7.20;99.90
46552;DHT22;32278;51.810;4.712;2023-02-22T01:13:41;7.40;99.90
46552;DHT22;32278;51.810;4.712;2023-02-22T01:16:07;7.40;99.90
46552;DHT22;32278;51.810;4.712;2023-02-22T01:18:34;7.30;99.90
46552;DHT22;32278;51.810;4.712;2023-02-22T01:21:00;7.20;99.90
46552;DHT22;32278;51.810;4.712;2023-02-22T01:23:26;7.10;99.90
46552;DHT22;32278;51.810;4.712;2023-02-22T01:25:52;7.00;99.90
46552;DHT22;32278;51.810;4.712;2023-02-22T01:28:18;6.90;99.90
46552;DHT22;32278;51.810;4.712;2023-02-22T01:30:44;7.00;99.90
46552;DHT22;32278;51.810;4.712;2023-02-22T01:33:10;7.00;99.90
46552;DHT22;32278;51.810;4.712;2023-02-22T01:35:38;6.90;99.90
46552;DHT22;32278;51.810;4.712;2023-02-22T01:38:05;6.90;99.90
46552;DHT22;32278;51.810;4.712;2023-02-22T01:40:37;6.90;99.90
46552;DHT22;32278;51.810;4.712;2023-02-22T01:43:13;6.80;99.90
46552;DHT22;32278;51.810;4.712;2023-02-22T01:45:46;6.80;99.90
46552;DHT22;32278;51.810;4.712;2023-02-22T01:53:58;7.00;99.90
46552;DHT22;32278;51.810;4.712;2023-02-22T01:56:26;6.90;99.90
46552;DHT22;32278;51.810;4.712;2023-02-22T01:59:00;6.90;99.90
46552;DHT22;32278;51.810;4.712;2023-02-22T02:01:26;6.90;99.90
46552;DHT22;32278;51.810;4.712;2023-02-22T02:03:56;6.80;99.90
46552;DHT22;32278;51.810;4.712;2023-02-22T02:06:23;6.60;99.90
46552;DHT22;32278;51.810;4.712;2023-02-22T02:11:22;6.80;99.90
46552;DHT22;32278;51.810;4.712;2023-02-22T02:13:50;6.80;99.90
46552;DHT22;32278;51.810;4.712;2023-02-22T02:16:16;6.90;99.90
46552;DHT22;32278;51.810;4.712;2023-02-22T02:18:43;6.90;99.90
46552;DHT22;32278;51.810;4.712;2023-02-22T02:21:32;6.90;99.90
46552;DHT22;32278;51.810;4.712;2023-02-22T02:27:16;7.10;99.90
46552;DHT22;32278;51.810;4.712;2023-02-22T02:32:47;7.10;99.90
46552;DHT22;32278;51.810;4.712;2023-02-22T02:35:19;7.10;99.90
46552;DHT22;32278;51.810;4.712;2023-02-22T02:37:56;7.00;99.90
46552;DHT22;32278;51.810;4.712;2023-02-22T02:40:47;7.10;99.90
46552;DHT22;32278;51.810;4.712;2023-02-22T02:46:02;7.10;99.90
46552;DHT22;32278;51.810;4.712;2023-02-22T02:48:30;7.10;99.90
46552;DHT22;32278;51.810;4.712;2023-02-22T02:50:59;7.10;99.90
46552;DHT22;32278;51.810;4.712;2023-02-22T02:53:31;7.20;99.90
46552;DHT22;32278;51.810;4.712;2023-02-22T02:55:59;7.40;99.90
46552;DHT22;32278;51.810;4.712;2023-02-22T02:58:25;7.40;99.90
46552;DHT22;32278;51.810;4.712;2023-02-22T03:00:53;7.40;99.90
46552;DHT22;32278;51.810;4.712;2023-02-22T03:03:35;7.40;99.90
46552;DHT22;32278;51.810;4.712;2023-02-22T03:06:15;7.40;99.90
46552;DHT22;32278;51.810;4.712;2023-02-22T03:08:58;7.40;99.90
46552;DHT22;32278;51.810;4.712;2023-02-22T03:11:27;7.60;99.90
46552;DHT22;32278;51.810;4.712;2023-02-22T03:14:32;7.50;99.90
46552;DHT22;32278;51.810;4.712;2023-02-22T03:17:07;7.50;99.90
46552;DHT22;32278;51.810;4.712;2023-02-22T03:19:43;7.50;99.90
46552;DHT22;32278;51.810;4.712;2023-02-22T03:22:13;7.60;99.90
46552;DHT22;32278;51.810;4.712;2023-02-22T03:24:56;7.90;99.90
46552;DHT22;32278;51.810;4.712;2023-02-22T03:30:05;8.20;99.90
46552;DHT22;32278;51.810;4.712;2023-02-22T03:32:36;8.00;99.90
46552;DHT22;32278;51.810;4.712;2023-02-22T03:35:10;7.90;99.90
46552;DHT22;32278;51.810;4.712;2023-02-22T03:37:41;7.90;99.90
46552;DHT22;32278;51.810;4.712;2023-02-22T03:40:12;8.00;99.90
46552;DHT22;32278;51.810;4.712;2023-02-22T03:42:49;8.10;99.90
46552;DHT22;32278;51.810;4.712;2023-02-22T03:45:20;8.20;99.90
46552;DHT22;32278;51.810;4.712;2023-02-22T03:47:52;8.20;99.90
46552;DHT22;32278;51.810;4.712;2023-02-22T03:50:25;8.50;99.90
46552;DHT22;32278;51.810;4.712;2023-02-22T03:52:54;8.40;99.90
46552;DHT22;32278;51.810;4.712;2023-02-22T03:55:23;8.40;99.90
46552;DHT22;32278;51.810;4.712;2023-02-22T03:57:51;8.40;99.90
46552;DHT22;32278;51.810;4.712;2023-02-22T04:00:23;8.40;99.90
46552;DHT22;32278;51.810;4.712;2023-02-22T04:02:49;8.40;99.90
46552;DHT22;32278;51.810;4.712;2023-02-22T04:05:15;8.60;99.90
46552;DHT22;32278;51.810;4.712;2023-02-22T04:07:42;8.70;99.90
46552;DHT22;32278;51.810;4.712;2023-02-22T04:10:09;8.50;99.90
46552;DHT22;32278;51.810;4.712;2023-02-22T04:12:36;8.50;99.90
46552;DHT22;32278;51.810;4.712;2023-02-22T04:15:03;8.60;99.90
46552;DHT22;32278;51.810;4.712;2023-02-22T04:17:29;8.50;99.90
46552;DHT22;32278;51.810;4.712;2023-02-22T04:19:55;8.70;99.90
46552;DHT22;32278;51.810;4.712;2023-02-22T04:22:21;8.80;99.90
46552;DHT22;32278;51.810;4.712;2023-02-22T04:24:46;8.90;99.90
46552;DHT22;32278;51.810;4.712;2023-02-22T04:27:14;8.90;99.90
46552;DHT22;32278;51.810;4.712;2023-02-22T04:29:40;8.80;99.90
46552;DHT22;32278;51.810;4.712;2023-02-22T04:32:06;9.00;99.90
46552;DHT22;32278;51.810;4.712;2023-02-22T04:34:32;9.00;99.90
46552;DHT22;32278;51.810;4.712;2023-02-22T04:36:57;9.20;99.90
46552;DHT22;32278;51.810;4.712;2023-02-22T04:39:23;9.20;99.90
46552;DHT22;32278;51.810;4.712;2023-02-22T04:41:49;9.40;99.90
46552;DHT22;32278;51.810;4.712;2023-02-22T04:44:14;9.40;99.90
46552;DHT22;32278;51.810;4.712;2023-02-22T04:46:40;9.50;99.90
46552;DHT22;32278;51.810;4.712;2023-02-22T04:49:05;9.50;99.90
46552;DHT22;32278;51.810;4.712;2023-02-22T04:51:31;9.50;99.90
46552;DHT22;32278;51.810;4.712;2023-02-22T04:53:57;9.50;99.90
46552;DHT22;32278;51.810;4.712;2023-02-22T04:56:22;9.80;99.90
46552;DHT22;32278;51.810;4.712;2023-02-22T04:58:48;9.90;99.90
46552;DHT22;32278;51.810;4.712;2023-02-22T05:01:14;10.00;99.90
46552;DHT22;32278;51.810;4.712;2023-02-22T05:03:41;9.90;99.90
46552;DHT22;32278;51.810;4.712;2023-02-22T05:06:06;10.10;99.90
46552;DHT22;32278;51.810;4.712;2023-02-22T05:08:32;10.20;99.90
46552;DHT22;32278;51.810;4.712;2023-02-22T05:10:57;10.10;99.90
46552;DHT22;32278;51.810;4.712;2023-02-22T05:13:23;10.30;99.90
46552;DHT22;32278;51.810;4.712;2023-02-22T05:15:48;10.30;99.90
46552;DHT22;32278;51.810;4.712;2023-02-22T05:18:14;10.50;99.90
46552;DHT22;32278;51.810;4.712;2023-02-22T05:20:40;10.60;99.90
46552;DHT22;32278;51.810;4.712;2023-02-22T05:23:06;10.60;99.90
46552;DHT22;32278;51.810;4.712;2023-02-22T05:25:32;10.60;99.90
46552;DHT22;32278;51.810;4.712;2023-02-22T05:28:00;10.80;99.90
46552;DHT22;32278;51.810;4.712;2023-02-22T05:30:30;10.70;99.90
46552;DHT22;32278;51.810;4.712;2023-02-22T05:32:56;10.90;99.90
46552;DHT22;32278;51.810;4.712;2023-02-22T05:35:22;11.10;99.90
46552;DHT22;32278;51.810;4.712;2023-02-22T05:37:48;11.20;99.90
46552;DHT22;32278;51.810;4.712;2023-02-22T05:40:16;11.30;99.90
46552;DHT22;32278;51.810;4.712;2023-02-22T05:42:42;11.30;99.90
46552;DHT22;32278;51.810;4.712;2023-02-22T05:45:08;11.30;99.90
46552;DHT22;32278;51.810;4.712;2023-02-22T05:47:33;11.50;99.90
46552;DHT22;32278;51.810;4.712;2023-02-22T05:49:59;11.50;99.90
46552;DHT22;32278;51.810;4.712;2023-02-22T05:52:26;11.70;99.90
46552;DHT22;32278;51.810;4.712;2023-02-22T05:54:51;11.70;99.90
46552;DHT22;32278;51.810;4.712;2023-02-22T05:57:17;12.00;99.90
46552;DHT22;32278;51.810;4.712;2023-02-22T05:59:42;11.90;99.90
46552;DHT22;32278;51.810;4.712;2023-02-22T06:02:08;12.00;99.90
46552;DHT22;32278;51.810;4.712;2023-02-22T06:04:34;12.00;99.90
46552;DHT22;32278;51.810;4.712;2023-02-22T06:06:59;11.80;99.90
46552;DHT22;32278;51.810;4.712;2023-02-22T06:09:25;11.80;99.90
46552;DHT22;32278;51.810;4.712;2023-02-22T06:11:50;11.90;99.90
46552;DHT22;32278;51.810;4.712;2023-02-22T06:14:16;11.90;99.90
46552;DHT22;32278;51.810;4.712;2023-02-22T06:16:42;11.90;99.90
46552;DHT22;32278;51.810;4.712;2023-02-22T06:19:07;12.10;99.90
46552;DHT22;32278;51.810;4.712;2023-02-22T06:21:33;12.00;99.90
46552;DHT22;32278;51.810;4.712;2023-02-22T06:23:58;11.90;99.90
46552;DHT22;32278;51.810;4.712;2023-02-22T06:26:25;11.90;99.90
46552;DHT22;32278;51.810;4.712;2023-02-22T06:28:51;12.10;99.90
46552;DHT22;32278;51.810;4.712;2023-02-22T06:31:17;11.90;99.90
46552;DHT22;32278;51.810;4.712;2023-02-22T06:33:42;11.90;99.90
46552;DHT22;32278;51.810;4.712;2023-02-22T06:36:08;12.10;99.90
46552;DHT22;32278;51.810;4.712;2023-02-22T06:38:34;12.00;99.90
46552;DHT22;32278;51.810;4.712;2023-02-22T06:40:59;12.20;99.90
46552;DHT22;32278;51.810;4.712;2023-02-22T06:43:25;12.30;99.90
46552;DHT22;32278;51.810;4.712;2023-02-22T06:45:51;12.30;99.90
46552;DHT22;32278;51.810;4.712;2023-02-22T06:48:17;12.40;99.90
46552;DHT22;32278;51.810;4.712;2023-02-22T06:50:43;12.30;99.90
46552;DHT22;32278;51.810;4.712;2023-02-22T06:53:08;12.40;99.90
46552;DHT22;32278;51.810;4.712;2023-02-22T06:55:34;12.30;99.90
46552;DHT22;32278;51.810;4.712;2023-02-22T06:58:01;12.20;99.90
46552;DHT22;32278;51.810;4.712;2023-02-22T07:00:29;12.10;99.90
46552;DHT22;32278;51.810;4.712;2023-02-22T07:02:55;12.10;99.90
46552;DHT22;32278;51.810;4.712;2023-02-22T07:05:22;12.20;99.90
46552;DHT22;32278;51.810;4.712;2023-02-22T07:07:49;12.10;99.90
46552;DHT22;32278;51.810;4.712;2023-02-22T07:10:23;12.20;99.90
46552;DHT22;32278;51.810;4.712;2023-02-22T07:12:49;12.10;99.90
46552;DHT22;32278;51.810;4.712;2023-02-22T07:15:17;12.10;99.90
46552;DHT22;32278;51.810;4.712;2023-02-22T07:17:43;12.10;99.90
46552;DHT22;32278;51.810;4.712;2023-02-22T07:20:09;12.20;99.90
46552;DHT22;32278;51.810;4.712;2023-02-22T07:22:36;12.20;99.90
46552;DHT22;32278;51.810;4.712;2023-02-22T07:25:06;12.20;99.90
46552;DHT22;32278;51.810;4.712;2023-02-22T07:27:38;12.20;99.90
46552;DHT22;32278;51.810;4.712;2023-02-22T07:32:51;12.40;99.90
46552;DHT22;32278;51.810;4.712;2023-02-22T07:35:23;12.40;99.90
46552;DHT22;32278;51.810;4.712;2023-02-22T07:37:49;12.50;99.90
46552;DHT22;32278;51.810;4.712;2023-02-22T07:40:16;12.40;99.90
46552;DHT22;32278;51.810;4.712;2023-02-22T07:42:51;12.20;99.90
46552;DHT22;32278;51.810;4.712;2023-02-22T07:45:17;12.20;99.90
46552;DHT22;32278;51.810;4.712;2023-02-22T07:47:45;12.10;99.90
46552;DHT22;32278;51.810;4.712;2023-02-22T07:50:13;12.10;99.90
46552;DHT22;32278;51.810;4.712;2023-02-22T07:52:39;12.30;99.90
46552;DHT22;32278;51.810;4.712;2023-02-22T07:55:05;12.20;99.90
46552;DHT22;32278;51.810;4.712;2023-02-22T07:57:31;12.30;99.90
46552;DHT22;32278;51.810;4.712;2023-02-22T07:59:57;12.50;99.90
46552;DHT22;32278;51.810;4.712;2023-02-22T08:02:24;12.40;99.90
46552;DHT22;32278;51.810;4.712;2023-02-22T08:04:50;12.30;99.90
46552;DHT22;32278;51.810;4.712;2023-02-22T08:07:15;12.50;99.90
46552;DHT22;32278;51.810;4.712;2023-02-22T08:09:41;12.50;99.90
46552;DHT22;32278;51.810;4.712;2023-02-22T08:12:07;12.30;99.90
46552;DHT22;32278;51.810;4.712;2023-02-22T08:14:32;12.30;99.90
46552;DHT22;32278;51.810;4.712;2023-02-22T08:16:58;12.60;99.90
46552;DHT22;32278;51.810;4.712;2023-02-22T08:19:23;12.40;99.90
46552;DHT22;32278;51.810;4.712;2023-02-22T08:21:49;12.20;99.90
46552;DHT22;32278;51.810;4.712;2023-02-22T08:24:14;12.30;99.90
46552;DHT22;32278;51.810;4.712;2023-02-22T08:26:44;12.20;99.90
46552;DHT22;32278;51.810;4.712;2023-02-22T08:29:10;12.20;99.90
46552;DHT22;32278;51.810;4.712;2023-02-22T08:31:36;12.10;99.90
46552;DHT22;32278;51.810;4.712;2023-02-22T08:34:01;12.00;99.90
46552;DHT22;32278;51.810;4.712;2023-02-22T08:36:27;12.00;99.90
46552;DHT22;32278;51.810;4.712;2023-02-22T08:38:53;12.10;99.90
46552;DHT22;32278;51.810;4.712;2023-02-22T08:41:19;12.10;99.90
46552;DHT22;32278;51.810;4.712;2023-02-22T08:43:46;12.10;99.90
46552;DHT22;32278;51.810;4.712;2023-02-22T08:46:11;11.90;99.90
46552;DHT22;32278;51.810;4.712;2023-02-22T08:48:37;11.90;99.90
46552;DHT22;32278;51.810;4.712;2023-02-22T08:51:02;12.00;99.90
46552;DHT22;32278;51.810;4.712;2023-02-22T08:53:28;12.00;99.90
46552;DHT22;32278;51.810;4.712;2023-02-22T08:55:54;11.80;99.90
46552;DHT22;32278;51.810;4.712;2023-02-22T08:58:20;11.90;99.90
46552;DHT22;32278;51.810;4.712;2023-02-22T09:00:45;11.70;99.90
46552;DHT22;32278;51.810;4.712;2023-02-22T09:03:13;11.70;99.90
46552;DHT22;32278;51.810;4.712;2023-02-22T09:05:40;11.60;99.90
46552;DHT22;32278;51.810;4.712;2023-02-22T09:08:06;11.60;99.90
46552;DHT22;32278;51.810;4.712;2023-02-22T09:10:32;11.60;99.90
46552;DHT22;32278;51.810;4.712;2023-02-22T09:12:58;11.60;99.90
46552;DHT22;32278;51.810;4.712;2023-02-22T09:15:25;11.60;99.90
46552;DHT22;32278;51.810;4.712;2023-02-22T09:17:52;11.50;99.90
46552;DHT22;32278;51.810;4.712;2023-02-22T09:20:19;11.50;99.90
46552;DHT22;32278;51.810;4.712;2023-02-22T09:22:46;11.60;99.90
46552;DHT22;32278;51.810;4.712;2023-02-22T09:25:12;11.50;99.90
46552;DHT22;32278;51.810;4.712;2023-02-22T09:27:38;11.50;99.90
46552;DHT22;32278;51.810;4.712;2023-02-22T09:30:05;11.70;99.90
46552;DHT22;32278;51.810;4.712;2023-02-22T09:32:36;11.50;99.90
46552;DHT22;32278;51.810;4.712;2023-02-22T09:35:02;11.40;99.90
46552;DHT22;32278;51.810;4.712;2023-02-22T09:37:27;11.40;99.90
46552;DHT22;32278;51.810;4.712;2023-02-22T09:39:53;11.50;99.90
46552;DHT22;32278;51.810;4.712;2023-02-22T09:42:29;11.20;99.90
46552;DHT22;32278;51.810;4.712;2023-02-22T09:45:15;11.00;99.90
46552;DHT22;32278;51.810;4.712;2023-02-22T09:47:46;11.20;99.90
46552;DHT22;32278;51.810;4.712;2023-02-22T09:50:16;11.30;99.90
46552;DHT22;32278;51.810;4.712;2023-02-22T09:52:53;11.20;99.90
46552;DHT22;32278;51.810;4.712;2023-02-22T09:55:30;11.20;99.90
46552;DHT22;32278;51.810;4.712;2023-02-22T09:58:01;11.00;99.90
46552;DHT22;32278;51.810;4.712;2023-02-22T10:00:31;11.10;99.90
46552;DHT22;32278;51.810;4.712;2023-02-22T10:06:08;10.70;99.90
46552;DHT22;32278;51.810;4.712;2023-02-22T10:08:36;10.60;99.90
46552;DHT22;32278;51.810;4.712;2023-02-22T10:25:21;9.60;99.90
46552;DHT22;32278;51.810;4.712;2023-02-22T10:30:53;9.50;99.90
46552;DHT22;32278;51.810;4.712;2023-02-22T10:33:24;9.40;99.90
46552;DHT22;32278;51.810;4.712;2023-02-22T10:35:53;9.20;99.90
46552;DHT22;32278;51.810;4.712;2023-02-22T10:38:31;9.10;99.90
46552;DHT22;32278;51.810;4.712;2023-02-22T10:41:27;9.20;99.90
46552;DHT22;32278;51.810;4.712;2023-02-22T10:43:53;9.00;99.90
46552;DHT22;32278;51.810;4.712;2023-02-22T10:46:21;8.90;99.90
46552;DHT22;32278;51.810;4.712;2023-02-22T10:48:51;8.90;99.90
46552;DHT22;32278;51.810;4.712;2023-02-22T10:51:17;8.80;99.90
46552;DHT22;32278;51.810;4.712;2023-02-22T10:53:44;8.80;99.90
46552;DHT22;32278;51.810;4.712;2023-02-22T10:58:51;8.90;99.90
46552;DHT22;32278;51.810;4.712;2023-02-22T11:01:36;8.90;99.90
46552;DHT22;32278;51.810;4.712;2023-02-22T11:06:33;9.10;99.90
46552;DHT22;32278;51.810;4.712;2023-02-22T11:09:12;9.20;99.90
46552;DHT22;32278;51.810;4.712;2023-02-22T11:11:40;9.30;99.90
46552;DHT22;32278;51.810;4.712;2023-02-22T11:14:07;9.10;99.90
46552;DHT22;32278;51.810;4.712;2023-02-22T11:16:47;8.90;99.90
46552;DHT22;32278;51.810;4.712;2023-02-22T11:19:21;8.80;99.90
46552;DHT22;32278;51.810;4.712;2023-02-22T11:22:11;9.00;99.90
46552;DHT22;32278;51.810;4.712;2023-02-22T11:24:48;9.00;99.90
46552;DHT22;32278;51.810;4.712;2023-02-22T11:29:47;9.00;99.90
46552;DHT22;32278;51.810;4.712;2023-02-22T11:32:18;9.10;99.90
46552;DHT22;32278;51.810;4.712;2023-02-22T11:34:47;9.10;99.90
46552;DHT22;32278;51.810;4.712;2023-02-22T11:37:26;9.10;99.90
46552;DHT22;32278;51.810;4.712;2023-02-22T11:40:22;9.00;99.90
46552;DHT22;32278;51.810;4.712;2023-02-22T11:43:05;8.70;99.90
46552;DHT22;32278;51.810;4.712;2023-02-22T11:45:32;8.90;99.90
46552;DHT22;32278;51.810;4.712;2023-02-22T11:47:59;9.00;99.90
46552;DHT22;32278;51.810;4.712;2023-02-22T11:50:32;9.10;99.90
46552;DHT22;32278;51.810;4.712;2023-02-22T11:56:13;9.40;99.90
46552;DHT22;32278;51.810;4.712;2023-02-22T11:58:45;9.50;99.90
46552;DHT22;32278;51.810;4.712;2023-02-22T12:01:27;9.60;99.90
46552;DHT22;32278;51.810;4.712;2023-02-22T12:09:32;9.90;99.90
46552;DHT22;32278;51.810;4.712;2023-02-22T12:12:03;10.00;99.90
46552;DHT22;32278;51.810;4.712;2023-02-22T12:20:14;10.10;99.90
46552;DHT22;32278;51.810;4.712;2023-02-22T12:22:55;10.20;99.90
46552;DHT22;32278;51.810;4.712;2023-02-22T12:25:30;10.20;99.90
46552;DHT22;32278;51.810;4.712;2023-02-22T12:28:00;10.20;99.90
46552;DHT22;32278;51.810;4.712;2023-02-22T12:30:34;10.20;99.90
46552;DHT22;32278;51.810;4.712;2023-02-22T12:33:08;10.20;99.90
46552;DHT22;32278;51.810;4.712;2023-02-22T12:35:40;10.30;99.90
46552;DHT22;32278;51.810;4.712;2023-02-22T12:43:31;10.10;99.90
46552;DHT22;32278;51.810;4.712;2023-02-22T12:48:42;10.20;99.90
46552;DHT22;32278;51.810;4.712;2023-02-22T12:51:37;10.20;99.90
46552;DHT22;32278;51.810;4.712;2023-02-22T12:57:04;10.30;99.90
46552;DHT22;32278;51.810;4.712;2023-02-22T12:59:47;10.10;99.90
46552;DHT22;32278;51.810;4.712;2023-02-22T13:05:04;10.20;99.90
46552;DHT22;32278;51.810;4.712;2023-02-22T13:13:03;10.40;99.90
46552;DHT22;32278;51.810;4.712;2023-02-22T13:20:40;10.40;99.90
46552;DHT22;32278;51.810;4.712;2023-02-22T13:23:20;10.40;99.90
46552;DHT22;32278;51.810;4.712;2023-02-22T13:29:03;10.50;99.90
46552;DHT22;32278;51.810;4.712;2023-02-22T13:31:58;10.40;99.90
46552;DHT22;32278;51.810;4.712;2023-02-22T13:40:42;10.50;99.90
46552;DHT22;32278;51.810;4.712;2023-02-22T13:42:58;10.50;99.90
46552;DHT22;32278;51.810;4.712;2023-02-22T13:48:28;10.50;99.90
46552;DHT22;32278;51.810;4.712;2023-02-22T13:56:13;10.60;99.90
46552;DHT22;32278;51.810;4.712;2023-02-22T13:58:56;10.80;99.90
46552;DHT22;32278;51.810;4.712;2023-02-22T14:01:38;10.80;99.90
46552;DHT22;32278;51.810;4.712;2023-02-22T14:06:44;10.70;99.90
46552;DHT22;32278;51.810;4.712;2023-02-22T14:09:15;10.80;99.90
46552;DHT22;32278;51.810;4.712;2023-02-22T14:11:45;10.90;99.90
46552;DHT22;32278;51.810;4.712;2023-02-22T14:14:12;10.90;99.90
46552;DHT22;32278;51.810;4.712;2023-02-22T14:16:39;10.90;99.90
46552;DHT22;32278;51.810;4.712;2023-02-22T14:21:33;10.80;99.90
46552;DHT22;32278;51.810;4.712;2023-02-22T14:24:11;10.80;99.90
46552;DHT22;32278;51.810;4.712;2023-02-22T14:26:39;10.80;99.90
46552;DHT22;32278;51.810;4.712;2023-02-22T14:39:38;10.90;99.90
46552;DHT22;32278;51.810;4.712;2023-02-22T14:53:21;10.70;99.90
46552;DHT22;32278;51.810;4.712;2023-02-22T14:55:57;10.70;99.90
46552;DHT22;32278;51.810;4.712;2023-02-22T14:58:40;10.60;99.90
46552;DHT22;32278;51.810;4.712;2023-02-22T15:03:47;10.60;99.90
46552;DHT22;32278;51.810;4.712;2023-02-22T15:06:18;10.60;99.90
46552;DHT22;32278;51.810;4.712;2023-02-22T15:08:45;10.60;99.90
46552;DHT22;32278;51.810;4.712;2023-02-22T15:11:28;10.60;99.90
46552;DHT22;32278;51.810;4.712;2023-02-22T15:13:55;10.70;99.90
46552;DHT22;32278;51.810;4.712;2023-02-22T15:16:27;10.70;99.90
46552;DHT22;32278;51.810;4.712;2023-02-22T15:18:56;10.60;99.90
46552;DHT22;32278;51.810;4.712;2023-02-22T15:21:26;10.50;99.90
46552;DHT22;32278;51.810;4.712;2023-02-22T15:23:58;10.40;99.90
46552;DHT22;32278;51.810;4.712;2023-02-22T15:26:39;10.30;99.90
46552;DHT22;32278;51.810;4.712;2023-02-22T15:29:18;10.30;99.90
46552;DHT22;32278;51.810;4.712;2023-02-22T15:31:45;10.20;99.90
46552;DHT22;32278;51.810;4.712;2023-02-22T15:36:40;10.20;99.90
46552;DHT22;32278;51.810;4.712;2023-02-22T15:42:12;10.30;99.90
46552;DHT22;32278;51.810;4.712;2023-02-22T15:44:49;10.30;99.90
46552;DHT22;32278;51.810;4.712;2023-02-22T15:47:27;10.30;99.90
46552;DHT22;32278;51.810;4.712;2023-02-22T15:52:53;10.30;99.90
46552;DHT22;32278;51.810;4.712;2023-02-22T15:55:25;10.30;99.90
46552;DHT22;32278;51.810;4.712;2023-02-22T15:57:52;10.30;99.90
46552;DHT22;32278;51.810;4.712;2023-02-22T16:00:25;10.30;99.90
46552;DHT22;32278;51.810;4.712;2023-02-22T16:02:58;10.30;99.90
46552;DHT22;32278;51.810;4.712;2023-02-22T16:05:31;10.40;99.90
46552;DHT22;32278;51.810;4.712;2023-02-22T16:07:58;10.40;99.90
46552;DHT22;32278;51.810;4.712;2023-02-22T16:10:29;10.30;99.90
46552;DHT22;32278;51.810;4.712;2023-02-22T16:13:19;10.30;99.90
46552;DHT22;32278;51.810;4.712;2023-02-22T16:16:00;10.30;99.90
46552;DHT22;32278;51.810;4.712;2023-02-22T16:18:33;10.30;99.90
46552;DHT22;32278;51.810;4.712;2023-02-22T16:21:00;10.30;99.90
46552;DHT22;32278;51.810;4.712;2023-02-22T16:23:26;10.40;99.90
46552;DHT22;32278;51.810;4.712;2023-02-22T16:26:25;10.40;99.90
46552;DHT22;32278;51.810;4.712;2023-02-22T16:28:56;10.40;99.90
46552;DHT22;32278;51.810;4.712;2023-02-22T16:31:28;10.50;99.90
46552;DHT22;32278;51.810;4.712;2023-02-22T16:33:56;10.50;99.90
46552;DHT22;32278;51.810;4.712;2023-02-22T16:36:34;10.50;99.90
46552;DHT22;32278;51.810;4.712;2023-02-22T16:39:01;10.50;99.90
46552;DHT22;32278;51.810;4.712;2023-02-22T16:41:26;10.60;99.90
46552;DHT22;32278;51.810;4.712;2023-02-22T16:43:53;10.60;99.90
46552;DHT22;32278;51.810;4.712;2023-02-22T16:46:18;10.50;99.90
46552;DHT22;32278;51.810;4.712;2023-02-22T16:48:44;10.40;99.90
46552;DHT22;32278;51.810;4.712;2023-02-22T16:51:23;10.40;99.90
46552;DHT22;32278;51.810;4.712;2023-02-22T16:53:52;10.40;99.90
46552;DHT22;32278;51.810;4.712;2023-02-22T16:56:20;10.40;99.90
46552;DHT22;32278;51.810;4.712;2023-02-22T16:58:48;10.50;99.90
46552;DHT22;32278;51.810;4.712;2023-02-22T17:01:16;10.50;99.90
46552;DHT22;32278;51.810;4.712;2023-02-22T17:03:42;10.50;99.90
46552;DHT22;32278;51.810;4.712;2023-02-22T17:06:09;10.60;99.90
46552;DHT22;32278;51.810;4.712;2023-02-22T17:08:36;10.60;99.90
46552;DHT22;32278;51.810;4.712;2023-02-22T17:11:01;10.60;99.90
46552;DHT22;32278;51.810;4.712;2023-02-22T17:13:28;10.70;99.90
46552;DHT22;32278;51.810;4.712;2023-02-22T17:15:55;10.70;99.90
46552;DHT22;32278;51.810;4.712;2023-02-22T17:18:22;10.80;99.90
46552;DHT22;32278;51.810;4.712;2023-02-22T17:20:52;10.80;99.90
46552;DHT22;32278;51.810;4.712;2023-02-22T17:23:19;10.90;99.90
46552;DHT22;32278;51.810;4.712;2023-02-22T17:25:51;11.00;99.90
46552;DHT22;32278;51.810;4.712;2023-02-22T17:28:20;11.00;99.90
46552;DHT22;32278;51.810;4.712;2023-02-22T17:30:46;11.00;99.90
46552;DHT22;32278;51.810;4.712;2023-02-22T17:33:18;10.80;99.90
46552;DHT22;32278;51.810;4.712;2023-02-22T17:35:44;10.90;99.90
46552;DHT22;32278;51.810;4.712;2023-02-22T17:38:11;10.90;99.90
46552;DHT22;32278;51.810;4.712;2023-02-22T17:40:38;10.70;99.90
46552;DHT22;32278;51.810;4.712;2023-02-22T17:43:06;10.80;99.90
46552;DHT22;32278;51.810;4.712;2023-02-22T17:45:35;10.80;99.90
46552;DHT22;32278;51.810;4.712;2023-02-22T17:48:01;10.70;99.90
46552;DHT22;32278;51.810;4.712;2023-02-22T17:50:27;10.90;99.90
46552;DHT22;32278;51.810;4.712;2023-02-22T17:52:53;11.00;99.90
46552;DHT22;32278;51.810;4.712;2023-02-22T17:55:19;11.00;99.90
46552;DHT22;32278;51.810;4.712;2023-02-22T17:57:46;11.10;99.90
46552;DHT22;32278;51.810;4.712;2023-02-22T18:00:16;11.20;99.90
46552;DHT22;32278;51.810;4.712;2023-02-22T18:02:49;11.10;99.90
46552;DHT22;32278;51.810;4.712;2023-02-22T18:05:15;11.00;99.90
46552;DHT22;32278;51.810;4.712;2023-02-22T18:07:42;10.90;99.90
46552;DHT22;32278;51.810;4.712;2023-02-22T18:10:09;10.90;99.90
46552;DHT22;32278;51.810;4.712;2023-02-22T18:12:38;10.90;99.90
46552;DHT22;32278;51.810;4.712;2023-02-22T18:15:05;11.00;99.90